sensor_id;sensor_type;location;lat;lon;timestamp;pressure;altitude;pressure_sealevel;temperature;humidity
42887;BME280;29032;56.028;92.904;2023-02-21T00:00:17;100579.19;;;-7.96;45.66
42887;BME280;29032;56.028;92.904;2023-02-21T00:05:20;100571.41;;;-7.98;45.54
42887;BME280;29032;56.028;92.904;2023-02-21T00:10:22;100573.47;;;-8.12;45.88
42887;BME280;29032;56.028;92.904;2023-02-21T00:15:26;100572.44;;;-8.33;46.35
42887;BME280;29032;56.028;92.904;2023-02-21T00:20:28;100578.00;;;-8.51;46.46
42887;BME280;29032;56.028;92.904;2023-02-21T00:25:30;100568.00;;;-8.61;46.49
42887;BME280;29032;56.028;92.904;2023-02-21T00:30:34;100573.44;;;-8.68;46.37
42887;BME280;29032;56.028;92.904;2023-02-21T00:35:36;100569.94;;;-8.65;46.82
42887;BME280;29032;56.028;92.904;2023-02-21T00:40:38;100570.28;;;-8.56;46.00
42887;BME280;29032;56.028;92.904;2023-02-21T00:45:42;100567.19;;;-8.61;46.23
42887;BME280;29032;56.028;92.904;2023-02-21T00:50:44;100572.31;;;-8.74;46.13
42887;BME280;29032;56.028;92.904;2023-02-21T00:55:46;100563.41;;;-8.78;46.21
42887;BME280;29032;56.028;92.904;2023-02-21T01:00:50;100572.69;;;-8.76;46.08
42887;BME280;29032;56.028;92.904;2023-02-21T01:05:53;100571.97;;;-8.83;46.61
42887;BME280;29032;56.028;92.904;2023-02-21T01:10:55;100578.22;;;-8.93;46.70
42887;BME280;29032;56.028;92.904;2023-02-21T01:15:58;100575.88;;;-8.88;46.25
42887;BME280;29032;56.028;92.904;2023-02-21T01:21:01;100572.00;;;-8.87;45.86
42887;BME280;29032;56.028;92.904;2023-02-21T01:26:03;100580.91;;;-8.86;46.49
42887;BME280;29032;56.028;92.904;2023-02-21T01:31:07;100581.22;;;-8.77;45.80
42887;BME280;29032;56.028;92.904;2023-02-21T01:36:09;100583.09;;;-8.60;45.24
42887;BME280;29032;56.028;92.904;2023-02-21T01:41:12;100585.72;;;-8.45;45.00
42887;BME280;29032;56.028;92.904;2023-02-21T01:46:16;100586.41;;;-8.34;45.09
42887;BME280;29032;56.028;92.904;2023-02-21T01:51:27;100590.22;;;-8.21;44.78
42887;BME280;29032;56.028;92.904;2023-02-21T01:56:32;100590.25;;;-8.28;43.59
42887;BME280;29032;56.028;92.904;2023-02-21T02:01:40;100585.38;;;-8.55;44.43
42887;BME280;29032;56.028;92.904;2023-02-21T02:06:45;100587.84;;;-8.74;44.41
42887;BME280;29032;56.028;92.904;2023-02-21T02:12:03;100593.66;;;-8.83;44.77
42887;BME280;29032;56.028;92.904;2023-02-21T02:17:24;100598.38;;;-8.94;44.83
42887;BME280;29032;56.028;92.904;2023-02-21T02:22:46;100594.44;;;-8.83;44.82
42887;BME280;29032;56.028;92.904;2023-02-21T02:39:20;100602.81;;;-8.52;44.26
42887;BME280;29032;56.028;92.904;2023-02-21T02:44:30;100594.63;;;-8.41;43.82
42887;BME280;29032;56.028;92.904;2023-02-21T02:49:37;100599.25;;;-8.38;43.86
42887;BME280;29032;56.028;92.904;2023-02-21T02:54:44;100601.16;;;-8.32;43.48
42887;BME280;29032;56.028;92.904;2023-02-21T02:59:47;100599.94;;;-8.24;43.68
42887;BME280;29032;56.028;92.904;2023-02-21T03:05:13;100601.69;;;-7.99;44.01
42887;BME280;29032;56.028;92.904;2023-02-21T03:10:28;100601.56;;;-7.81;43.71
42887;BME280;29032;56.028;92.904;2023-02-21T03:15:37;100606.13;;;-7.71;43.42
42887;BME280;29032;56.028;92.904;2023-02-21T03:20:42;100605.31;;;-7.64;43.08
42887;BME280;29032;56.028;92.904;2023-02-21T03:25:49;100611.53;;;-7.68;43.17
42887;BME280;29032;56.028;92.904;2023-02-21T03:30:55;100613.56;;;-7.75;43.34
42887;BME280;29032;56.028;92.904;2023-02-21T03:36:03;100613.91;;;-7.73;43.37
42887;BME280;29032;56.028;92.904;2023-02-21T03:41:08;100621.97;;;-7.62;43.62
42887;BME280;29032;56.028;92.904;2023-02-21T03:46:14;100616.81;;;-7.50;43.55
42887;BME280;29032;56.028;92.904;2023-02-21T03:51:17;100626.75;;;-7.32;42.94
42887;BME280;29032;56.028;92.904;2023-02-21T03:56:20;100620.34;;;-7.12;43.04
42887;BME280;29032;56.028;92.904;2023-02-21T04:01:36;100620.25;;;-7.04;42.72
42887;BME280;29032;56.028;92.904;2023-02-21T04:06:38;100622.44;;;-6.92;42.57
42887;BME280;29032;56.028;92.904;2023-02-21T04:11:43;100626.56;;;-6.77;42.23
42887;BME280;29032;56.028;92.904;2023-02-21T04:16:46;100626.06;;;-6.68;41.95
42887;BME280;29032;56.028;92.904;2023-02-21T04:21:49;100620.47;;;-6.58;42.41
42887;BME280;29032;56.028;92.904;2023-02-21T04:26:52;100615.41;;;-6.56;42.22
42887;BME280;29032;56.028;92.904;2023-02-21T04:31:56;100602.22;;;-6.61;42.44
42887;BME280;29032;56.028;92.904;2023-02-21T04:36:59;100615.50;;;-6.36;42.30
42887;BME280;29032;56.028;92.904;2023-02-21T04:42:02;100623.00;;;-6.16;42.37
42887;BME280;29032;56.028;92.904;2023-02-21T04:47:05;100631.34;;;-6.00;41.73
42887;BME280;29032;56.028;92.904;2023-02-21T04:52:07;100633.47;;;-5.88;41.80
42887;BME280;29032;56.028;92.904;2023-02-21T04:57:11;100629.78;;;-6.01;41.81
42887;BME280;29032;56.028;92.904;2023-02-21T05:02:13;100633.81;;;-6.09;42.68
42887;BME280;29032;56.028;92.904;2023-02-21T05:07:15;100631.72;;;-5.75;42.50
42887;BME280;29032;56.028;92.904;2023-02-21T05:12:19;100633.50;;;-5.41;41.42
42887;BME280;29032;56.028;92.904;2023-02-21T05:17:21;100635.38;;;-5.14;41.25
42887;BME280;29032;56.028;92.904;2023-02-21T05:22:24;100632.63;;;-4.95;40.96
42887;BME280;29032;56.028;92.904;2023-02-21T05:27:27;100624.47;;;-4.75;41.15
42887;BME280;29032;56.028;92.904;2023-02-21T05:32:30;100624.25;;;-4.64;40.98
42887;BME280;29032;56.028;92.904;2023-02-21T05:37:32;100621.66;;;-4.51;41.38
42887;BME280;29032;56.028;92.904;2023-02-21T05:42:35;100621.34;;;-4.37;40.94
42887;BME280;29032;56.028;92.904;2023-02-21T05:47:38;100623.22;;;-4.34;41.09
42887;BME280;29032;56.028;92.904;2023-02-21T05:52:40;100624.88;;;-4.20;41.19
42887;BME280;29032;56.028;92.904;2023-02-21T05:57:45;100615.66;;;-4.10;40.71
42887;BME280;29032;56.028;92.904;2023-02-21T06:02:47;100615.25;;;-3.92;40.66
42887;BME280;29032;56.028;92.904;2023-02-21T06:07:49;100629.09;;;-3.67;40.23
42887;BME280;29032;56.028;92.904;2023-02-21T06:12:53;100616.06;;;-3.46;40.02
42887;BME280;29032;56.028;92.904;2023-02-21T06:17:55;100619.63;;;-3.33;39.46
42887;BME280;29032;56.028;92.904;2023-02-21T06:22:57;100622.34;;;-3.17;39.54
42887;BME280;29032;56.028;92.904;2023-02-21T06:28:01;100620.53;;;-3.07;39.55
42887;BME280;29032;56.028;92.904;2023-02-21T06:33:03;100622.50;;;-3.08;39.25
42887;BME280;29032;56.028;92.904;2023-02-21T06:38:05;100618.22;;;-3.09;39.94
42887;BME280;29032;56.028;92.904;2023-02-21T06:43:08;100620.53;;;-3.07;40.07
42887;BME280;29032;56.028;92.904;2023-02-21T06:48:13;100615.72;;;-3.03;39.50
42887;BME280;29032;56.028;92.904;2023-02-21T06:53:16;100619.84;;;-3.11;39.03
42887;BME280;29032;56.028;92.904;2023-02-21T06:58:20;100610.69;;;-3.50;40.25
42887;BME280;29032;56.028;92.904;2023-02-21T07:03:22;100610.25;;;-3.32;39.85
42887;BME280;29032;56.028;92.904;2023-02-21T07:08:24;100615.53;;;-2.96;40.08
42887;BME280;29032;56.028;92.904;2023-02-21T07:13:27;100616.72;;;-2.68;39.30
42887;BME280;29032;56.028;92.904;2023-02-21T07:18:30;100615.41;;;-2.51;39.27
42887;BME280;29032;56.028;92.904;2023-02-21T07:23:32;100613.78;;;-2.10;38.81
42887;BME280;29032;56.028;92.904;2023-02-21T07:28:36;100607.88;;;-1.96;38.04
42887;BME280;29032;56.028;92.904;2023-02-21T07:33:38;100614.03;;;-2.17;38.19
42887;BME280;29032;56.028;92.904;2023-02-21T07:38:40;100598.66;;;-2.40;38.65
42887;BME280;29032;56.028;92.904;2023-02-21T07:43:44;100597.22;;;-2.45;38.71
42887;BME280;29032;56.028;92.904;2023-02-21T07:48:46;100603.06;;;-2.17;38.34
42887;BME280;29032;56.028;92.904;2023-02-21T07:53:48;100604.22;;;-1.93;38.38
42887;BME280;29032;56.028;92.904;2023-02-21T07:58:51;100605.88;;;-1.82;38.30
42887;BME280;29032;56.028;92.904;2023-02-21T08:03:54;100615.75;;;-1.85;37.90
42887;BME280;29032;56.028;92.904;2023-02-21T08:08:56;100603.25;;;-1.99;38.45
42887;BME280;29032;56.028;92.904;2023-02-21T08:13:59;100601.75;;;-2.25;38.56
42887;BME280;29032;56.028;92.904;2023-02-21T08:19:02;100594.25;;;-2.63;38.80
42887;BME280;29032;56.028;92.904;2023-02-21T08:24:04;100597.78;;;-2.91;39.47
42887;BME280;29032;56.028;92.904;2023-02-21T08:29:08;100593.72;;;-3.00;39.36
42887;BME280;29032;56.028;92.904;2023-02-21T08:34:10;100588.25;;;-3.00;39.25
42887;BME280;29032;56.028;92.904;2023-02-21T08:39:13;100595.59;;;-2.97;39.20
42887;BME280;29032;56.028;92.904;2023-02-21T08:44:17;100591.59;;;-2.79;39.04
42887;BME280;29032;56.028;92.904;2023-02-21T08:49:19;100594.28;;;-2.37;38.77
42887;BME280;29032;56.028;92.904;2023-02-21T08:54:21;100588.34;;;-2.23;38.38
42887;BME280;29032;56.028;92.904;2023-02-21T08:59:25;100596.69;;;-2.52;38.66
42887;BME280;29032;56.028;92.904;2023-02-21T09:04:27;100591.69;;;-2.83;38.84
42887;BME280;29032;56.028;92.904;2023-02-21T09:09:29;100589.34;;;-2.97;39.15
42887;BME280;29032;56.028;92.904;2023-02-21T09:14:33;100594.94;;;-3.01;39.00
42887;BME280;29032;56.028;92.904;2023-02-21T09:19:35;100601.22;;;-3.16;39.23
42887;BME280;29032;56.028;92.904;2023-02-21T09:24:37;100591.69;;;-3.25;39.42
42887;BME280;29032;56.028;92.904;2023-02-21T09:29:41;100605.63;;;-3.35;39.55
42887;BME280;29032;56.028;92.904;2023-02-21T09:34:44;100601.03;;;-3.38;39.88
42887;BME280;29032;56.028;92.904;2023-02-21T09:39:46;100611.97;;;-3.38;39.78
42887;BME280;29032;56.028;92.904;2023-02-21T09:44:50;100609.81;;;-3.47;39.42
42887;BME280;29032;56.028;92.904;2023-02-21T09:49:57;100611.31;;;-3.75;39.96
42887;BME280;29032;56.028;92.904;2023-02-21T09:55:04;100614.31;;;-3.86;40.16
42887;BME280;29032;56.028;92.904;2023-02-21T10:00:17;100614.31;;;-3.69;40.04
42887;BME280;29032;56.028;92.904;2023-02-21T10:05:27;100621.31;;;-3.68;39.92
42887;BME280;29032;56.028;92.904;2023-02-21T10:10:34;100615.06;;;-3.69;39.93
42887;BME280;29032;56.028;92.904;2023-02-21T10:15:44;100611.94;;;-3.67;40.05
42887;BME280;29032;56.028;92.904;2023-02-21T10:20:51;100616.94;;;-3.82;39.87
42887;BME280;29032;56.028;92.904;2023-02-21T10:25:56;100620.38;;;-3.94;40.34
42887;BME280;29032;56.028;92.904;2023-02-21T10:31:05;100617.97;;;-4.09;40.30
42887;BME280;29032;56.028;92.904;2023-02-21T10:36:12;100602.41;;;-4.28;40.86
42887;BME280;29032;56.028;92.904;2023-02-21T10:41:16;100626.56;;;-4.26;40.63
42887;BME280;29032;56.028;92.904;2023-02-21T10:46:23;100609.41;;;-4.27;40.76
42887;BME280;29032;56.028;92.904;2023-02-21T10:51:30;100617.25;;;-4.29;40.44
42887;BME280;29032;56.028;92.904;2023-02-21T10:56:33;100608.84;;;-4.38;40.92
42887;BME280;29032;56.028;92.904;2023-02-21T11:01:42;100612.44;;;-4.41;40.46
42887;BME280;29032;56.028;92.904;2023-02-21T11:06:47;100618.69;;;-4.60;40.40
42887;BME280;29032;56.028;92.904;2023-02-21T11:11:59;100612.72;;;-4.72;40.80
42887;BME280;29032;56.028;92.904;2023-02-21T11:17:21;100613.06;;;-4.90;40.89
42887;BME280;29032;56.028;92.904;2023-02-21T11:22:25;100626.94;;;-5.24;41.29
42887;BME280;29032;56.028;92.904;2023-02-21T11:27:37;100622.72;;;-5.48;40.90
42887;BME280;29032;56.028;92.904;2023-02-21T11:32:42;100620.28;;;-5.66;42.21
42887;BME280;29032;56.028;92.904;2023-02-21T11:37:52;100611.56;;;-5.81;42.55
42887;BME280;29032;56.028;92.904;2023-02-21T11:43:18;100612.06;;;-5.86;42.25
42887;BME280;29032;56.028;92.904;2023-02-21T11:48:23;100626.47;;;-6.12;42.91
42887;BME280;29032;56.028;92.904;2023-02-21T11:53:30;100626.72;;;-6.03;42.96
42887;BME280;29032;56.028;92.904;2023-02-21T11:58:40;100626.72;;;-6.03;42.90
42887;BME280;29032;56.028;92.904;2023-02-21T12:04:07;100633.44;;;-6.11;42.32
42887;BME280;29032;56.028;92.904;2023-02-21T12:09:15;100644.09;;;-6.20;43.54
42887;BME280;29032;56.028;92.904;2023-02-21T12:20:14;100635.16;;;-6.51;43.58
42887;BME280;29032;56.028;92.904;2023-02-21T12:25:25;100628.59;;;-6.54;44.17
42887;BME280;29032;56.028;92.904;2023-02-21T12:30:51;100632.25;;;-6.68;43.95
42887;BME280;29032;56.028;92.904;2023-02-21T12:36:28;100639.22;;;-6.63;44.15
42887;BME280;29032;56.028;92.904;2023-02-21T12:41:45;100648.31;;;-6.77;44.83
42887;BME280;29032;56.028;92.904;2023-02-21T12:46:53;100637.91;;;-6.86;44.75
42887;BME280;29032;56.028;92.904;2023-02-21T12:52:05;100641.56;;;-6.65;44.22
42887;BME280;29032;56.028;92.904;2023-02-21T12:57:11;100649.78;;;-6.38;44.26
42887;BME280;29032;56.028;92.904;2023-02-21T13:02:20;100647.97;;;-6.21;43.74
42887;BME280;29032;56.028;92.904;2023-02-21T13:07:33;100652.88;;;-6.09;43.70
42887;BME280;29032;56.028;92.904;2023-02-21T13:12:42;100663.97;;;-6.23;43.98
42887;BME280;29032;56.028;92.904;2023-02-21T13:17:56;100663.06;;;-6.44;43.61
42887;BME280;29032;56.028;92.904;2023-02-21T13:28:43;100659.31;;;-6.53;43.61
42887;BME280;29032;56.028;92.904;2023-02-21T13:33:50;100670.44;;;-6.41;43.01
42887;BME280;29032;56.028;92.904;2023-02-21T13:39:02;100667.31;;;-6.43;43.53
42887;BME280;29032;56.028;92.904;2023-02-21T13:44:08;100652.84;;;-6.67;43.87
42887;BME280;29032;56.028;92.904;2023-02-21T13:49:40;100653.75;;;-6.77;43.86
42887;BME280;29032;56.028;92.904;2023-02-21T14:00:51;100656.50;;;-6.80;43.93
42887;BME280;29032;56.028;92.904;2023-02-21T14:11:46;100664.22;;;-6.75;43.80
42887;BME280;29032;56.028;92.904;2023-02-21T14:16:53;100655.56;;;-6.67;43.17
42887;BME280;29032;56.028;92.904;2023-02-21T14:22:03;100670.84;;;-6.42;43.67
42887;BME280;29032;56.028;92.904;2023-02-21T14:27:30;100662.78;;;-6.22;42.77
42887;BME280;29032;56.028;92.904;2023-02-21T14:32:37;100654.44;;;-6.39;43.00
42887;BME280;29032;56.028;92.904;2023-02-21T14:37:44;100654.34;;;-6.62;43.74
42887;BME280;29032;56.028;92.904;2023-02-21T14:43:22;100657.16;;;-6.69;43.58
42887;BME280;29032;56.028;92.904;2023-02-21T14:48:51;100670.31;;;-6.64;43.28
42887;BME280;29032;56.028;92.904;2023-02-21T14:54:24;100673.31;;;-6.55;43.30
42887;BME280;29032;56.028;92.904;2023-02-21T14:59:41;100671.63;;;-6.45;43.60
42887;BME280;29032;56.028;92.904;2023-02-21T15:04:53;100666.47;;;-6.36;42.72
42887;BME280;29032;56.028;92.904;2023-02-21T15:10:10;100670.66;;;-6.28;42.63
42887;BME280;29032;56.028;92.904;2023-02-21T15:15:19;100667.72;;;-6.41;42.80
42887;BME280;29032;56.028;92.904;2023-02-21T15:20:25;100678.63;;;-6.44;42.48
42887;BME280;29032;56.028;92.904;2023-02-21T15:25:27;100682.53;;;-6.45;43.00
42887;BME280;29032;56.028;92.904;2023-02-21T15:30:36;100674.13;;;-6.58;42.51
42887;BME280;29032;56.028;92.904;2023-02-21T15:35:43;100686.06;;;-6.82;42.85
42887;BME280;29032;56.028;92.904;2023-02-21T15:40:47;100693.97;;;-6.95;42.78
42887;BME280;29032;56.028;92.904;2023-02-21T15:45:51;100696.56;;;-7.22;43.77
42887;BME280;29032;56.028;92.904;2023-02-21T15:51:00;100670.47;;;-7.57;43.35
42887;BME280;29032;56.028;92.904;2023-02-21T15:56:18;100695.69;;;-7.57;44.18
42887;BME280;29032;56.028;92.904;2023-02-21T16:01:20;100684.41;;;-7.52;43.96
42887;BME280;29032;56.028;92.904;2023-02-21T16:06:25;100679.72;;;-7.48;44.25
42887;BME280;29032;56.028;92.904;2023-02-21T16:11:43;100687.41;;;-7.43;43.61
42887;BME280;29032;56.028;92.904;2023-02-21T16:16:47;100687.53;;;-7.57;44.59
42887;BME280;29032;56.028;92.904;2023-02-21T16:22:10;100686.75;;;-7.54;44.29
42887;BME280;29032;56.028;92.904;2023-02-21T16:27:15;100688.34;;;-7.60;44.89
42887;BME280;29032;56.028;92.904;2023-02-21T16:32:18;100687.59;;;-7.64;44.38
42887;BME280;29032;56.028;92.904;2023-02-21T16:37:23;100697.63;;;-7.54;44.48
42887;BME280;29032;56.028;92.904;2023-02-21T16:42:25;100693.34;;;-7.55;43.92
42887;BME280;29032;56.028;92.904;2023-02-21T16:47:27;100701.53;;;-7.58;44.13
42887;BME280;29032;56.028;92.904;2023-02-21T16:52:31;100703.94;;;-7.68;44.09
42887;BME280;29032;56.028;92.904;2023-02-21T16:57:33;100699.06;;;-7.98;44.08
42887;BME280;29032;56.028;92.904;2023-02-21T17:02:35;100710.72;;;-7.97;44.42
42887;BME280;29032;56.028;92.904;2023-02-21T17:07:39;100708.66;;;-7.75;45.02
42887;BME280;29032;56.028;92.904;2023-02-21T17:12:41;100703.94;;;-7.71;43.37
42887;BME280;29032;56.028;92.904;2023-02-21T17:17:43;100702.81;;;-7.77;44.49
42887;BME280;29032;56.028;92.904;2023-02-21T17:22:47;100711.69;;;-7.70;43.73
42887;BME280;29032;56.028;92.904;2023-02-21T17:27:49;100708.59;;;-7.72;43.51
42887;BME280;29032;56.028;92.904;2023-02-21T17:32:52;100697.75;;;-7.72;43.27
42887;BME280;29032;56.028;92.904;2023-02-21T17:37:56;100699.28;;;-7.71;43.27
42887;BME280;29032;56.028;92.904;2023-02-21T17:42:58;100711.31;;;-7.72;43.18
42887;BME280;29032;56.028;92.904;2023-02-21T17:48:00;100706.66;;;-7.71;43.69
42887;BME280;29032;56.028;92.904;2023-02-21T17:53:04;100702.00;;;-7.71;42.68
42887;BME280;29032;56.028;92.904;2023-02-21T17:58:06;100701.00;;;-7.95;43.21
42887;BME280;29032;56.028;92.904;2023-02-21T18:03:08;100700.38;;;-8.24;43.14
42887;BME280;29032;56.028;92.904;2023-02-21T18:08:12;100691.88;;;-8.33;43.69
42887;BME280;29032;56.028;92.904;2023-02-21T18:13:19;100710.47;;;-8.24;43.07
42887;BME280;29032;56.028;92.904;2023-02-21T18:18:21;100718.19;;;-8.19;43.36
42887;BME280;29032;56.028;92.904;2023-02-21T18:23:26;100717.00;;;-8.14;43.33
42887;BME280;29032;56.028;92.904;2023-02-21T18:28:28;100710.88;;;-8.29;43.27
42887;BME280;29032;56.028;92.904;2023-02-21T18:33:31;100714.06;;;-8.52;43.67
42887;BME280;29032;56.028;92.904;2023-02-21T18:38:36;100721.47;;;-8.60;43.59
42887;BME280;29032;56.028;92.904;2023-02-21T18:43:39;100730.03;;;-8.79;43.98
42887;BME280;29032;56.028;92.904;2023-02-21T18:48:42;100725.38;;;-8.82;44.52
42887;BME280;29032;56.028;92.904;2023-02-21T18:53:47;100716.16;;;-9.02;45.25
42887;BME280;29032;56.028;92.904;2023-02-21T18:58:49;100713.81;;;-9.08;45.46
42887;BME280;29032;56.028;92.904;2023-02-21T19:03:53;100725.03;;;-8.95;44.87
42887;BME280;29032;56.028;92.904;2023-02-21T19:08:56;100726.16;;;-8.85;44.28
42887;BME280;29032;56.028;92.904;2023-02-21T19:13:59;100719.59;;;-8.84;43.39
42887;BME280;29032;56.028;92.904;2023-02-21T19:19:01;100710.66;;;-8.74;43.13
42887;BME280;29032;56.028;92.904;2023-02-21T19:24:04;100720.31;;;-8.66;42.87
42887;BME280;29032;56.028;92.904;2023-02-21T19:29:07;100720.28;;;-8.62;43.33
42887;BME280;29032;56.028;92.904;2023-02-21T19:34:09;100716.03;;;-8.60;42.43
42887;BME280;29032;56.028;92.904;2023-02-21T19:39:13;100724.16;;;-8.56;42.26
42887;BME280;29032;56.028;92.904;2023-02-21T19:44:15;100717.63;;;-8.73;42.77
42887;BME280;29032;56.028;92.904;2023-02-21T19:49:17;100719.56;;;-8.77;42.30
42887;BME280;29032;56.028;92.904;2023-02-21T19:54:22;100714.56;;;-9.04;42.92
42887;BME280;29032;56.028;92.904;2023-02-21T19:59:24;100704.16;;;-9.44;43.30
42887;BME280;29032;56.028;92.904;2023-02-21T20:04:26;100706.09;;;-9.63;43.41
42887;BME280;29032;56.028;92.904;2023-02-21T20:09:31;100701.03;;;-9.75;43.44
42887;BME280;29032;56.028;92.904;2023-02-21T20:14:33;100706.44;;;-9.82;43.67
42887;BME280;29032;56.028;92.904;2023-02-21T20:19:35;100712.28;;;-9.58;43.63
42887;BME280;29032;56.028;92.904;2023-02-21T20:24:38;100710.75;;;-9.31;42.58
42887;BME280;29032;56.028;92.904;2023-02-21T20:29:42;100708.78;;;-9.20;42.74
42887;BME280;29032;56.028;92.904;2023-02-21T20:34:44;100714.59;;;-9.11;42.77
42887;BME280;29032;56.028;92.904;2023-02-21T20:39:49;100667.38;;;-9.24;42.05
42887;BME280;29032;56.028;92.904;2023-02-21T20:44:51;100704.50;;;-8.99;41.20
42887;BME280;29032;56.028;92.904;2023-02-21T20:49:53;100699.50;;;-9.26;41.64
42887;BME280;29032;56.028;92.904;2023-02-21T20:54:57;100690.63;;;-9.37;42.04
42887;BME280;29032;56.028;92.904;2023-02-21T20:59:59;100695.63;;;-9.46;41.91
42887;BME280;29032;56.028;92.904;2023-02-21T21:05:01;100703.41;;;-9.52;41.81
42887;BME280;29032;56.028;92.904;2023-02-21T21:10:05;100698.34;;;-9.53;41.42
42887;BME280;29032;56.028;92.904;2023-02-21T21:15:09;100689.06;;;-9.63;41.51
42887;BME280;29032;56.028;92.904;2023-02-21T21:20:15;100694.06;;;-9.76;41.76
42887;BME280;29032;56.028;92.904;2023-02-21T21:25:19;100684.31;;;-10.23;42.12
42887;BME280;29032;56.028;92.904;2023-02-21T21:30:21;100701.19;;;-10.58;43.29
42887;BME280;29032;56.028;92.904;2023-02-21T21:35:23;100694.19;;;-10.66;43.37
42887;BME280;29032;56.028;92.904;2023-02-21T21:40:27;100694.16;;;-10.74;43.16
42887;BME280;29032;56.028;92.904;2023-02-21T21:45:29;100687.19;;;-10.85;43.57
42887;BME280;29032;56.028;92.904;2023-02-21T21:50:31;100696.44;;;-10.83;43.23
42887;BME280;29032;56.028;92.904;2023-02-21T21:55:36;100688.34;;;-10.83;43.53
42887;BME280;29032;56.028;92.904;2023-02-21T22:00:38;100694.50;;;-10.86;43.41
42887;BME280;29032;56.028;92.904;2023-02-21T22:05:41;100702.66;;;-10.75;43.60
42887;BME280;29032;56.028;92.904;2023-02-21T22:10:45;100703.03;;;-10.77;43.71
42887;BME280;29032;56.028;92.904;2023-02-21T22:15:47;100703.72;;;-10.94;42.95
42887;BME280;29032;56.028;92.904;2023-02-21T22:20:49;100705.59;;;-11.05;43.58
42887;BME280;29032;56.028;92.904;2023-02-21T22:25:53;100717.13;;;-11.08;43.11
42887;BME280;29032;56.028;92.904;2023-02-21T22:30:55;100705.50;;;-11.16;43.61
42887;BME280;29032;56.028;92.904;2023-02-21T22:35:57;100708.16;;;-11.23;43.22
42887;BME280;29032;56.028;92.904;2023-02-21T22:41:01;100715.09;;;-11.26;43.88
42887;BME280;29032;56.028;92.904;2023-02-21T22:46:04;100703.03;;;-11.39;43.34
42887;BME280;29032;56.028;92.904;2023-02-21T22:51:06;100714.59;;;-11.38;43.33
42887;BME280;29032;56.028;92.904;2023-02-21T22:56:13;100711.19;;;-11.32;43.64
42887;BME280;29032;56.028;92.904;2023-02-21T23:01:15;100711.91;;;-11.38;43.55
42887;BME280;29032;56.028;92.904;2023-02-21T23:06:18;100713.13;;;-11.32;43.99
42887;BME280;29032;56.028;92.904;2023-02-21T23:11:22;100719.00;;;-11.19;43.07
42887;BME280;29032;56.028;92.904;2023-02-21T23:16:24;100731.06;;;-11.06;42.76
42887;BME280;29032;56.028;92.904;2023-02-21T23:21:26;100731.94;;;-10.88;42.99
42887;BME280;29032;56.028;92.904;2023-02-21T23:26:30;100725.91;;;-10.63;41.60
42887;BME280;29032;56.028;92.904;2023-02-21T23:31:32;100725.91;;;-10.63;42.31
42887;BME280;29032;56.028;92.904;2023-02-21T23:36:34;100733.22;;;-10.71;42.63
42887;BME280;29032;56.028;92.904;2023-02-21T23:41:38;100743.47;;;-10.98;42.57
42887;BME280;29032;56.028;92.904;2023-02-21T23:46:43;100731.31;;;-11.26;43.62
42887;BME280;29032;56.028;92.904;2023-02-21T23:51:46;100727.34;;;-11.39;43.85
42887;BME280;29032;56.028;92.904;2023-02-21T23:56:49;100745.97;;;-11.23;43.07
